PWSweather.com
Personal Weather Stations
Station Observations
NORTHPOLE1
Tombur Subdivision, North Pole, AK 99705

Tombur SubdivisionNorth Pole, AK 99705

Lat: 64.774039, Lon: -147.284862

Elevation: 434

Station Type: Davis Vantage Pro 2

http://kl7ac.com

High Low Average
Temperature 59.4°F15.2°F 40.7°F4.8°F 52.1°F11.2°F
Dew Point 33.7°F0.9°F 25.1°F-3.8°F 30.6°F-0.8°F
Winds 9.0 mph ENE14.5 mph ENE Calm Calm 3.0 mph 4.8 mph
Wind Gusts 24.0 mph38.6 mph 3.0 mph4.8 mph 10.7 mph17.2 mph
Humidity 71% 27% 46%
Pressure 29.45 in997.30 in 29.41 in995.90 in -
Precipitation 0.00 in0.00 in - -
Hour Temp Dew Point Humidity Winds Wind Gusts Pressure Precip Precip Rate Daily Precip Total
12:00 AM 33.8°F1.0°C 29.2°F-1.6°C 83% Calm Calm 2.0 mph3.2 kmh 29.76 in1007.8 mb 0.00 in0.0 mm 0.00 in0.0 mm 0.00 in0.0 mm
12:05 AM 33.5°F0.8°C 28.9°F-1.7°C 83% Calm Calm 2.0 mph3.2 kmh 29.76 in1007.8 mb 0.00 in0.0 mm 0.00 in0.0 mm 0.00 in0.0 mm
12:10 AM 33.3°F0.7°C 28.7°F-1.8°C 83% Calm Calm 2.0 mph3.2 kmh 29.76 in1007.8 mb 0.00 in0.0 mm 0.00 in0.0 mm 0.00 in0.0 mm
12:15 AM 33.0°F0.6°C 28.7°F-1.8°C 84% Calm Calm 2.0 mph3.2 kmh 29.76 in1007.8 mb 0.00 in0.0 mm 0.00 in0.0 mm 0.00 in0.0 mm
12:20 AM 32.8°F0.4°C 28.5°F-1.9°C 84% Calm Calm 2.0 mph3.2 kmh 29.76 in1007.8 mb 0.00 in0.0 mm 0.00 in0.0 mm 0.00 in0.0 mm
12:25 AM 32.6°F0.3°C 28.3°F-2.1°C 84% Calm Calm 2.0 mph3.2 kmh 29.76 in1007.8 mb 0.00 in0.0 mm 0.00 in0.0 mm 0.00 in0.0 mm
12:30 AM 32.3°F0.2°C 28.3°F-2.1°C 85% Calm Calm 2.0 mph3.2 kmh 29.76 in1007.8 mb 0.00 in0.0 mm 0.00 in0.0 mm 0.00 in0.0 mm
12:35 AM 32.1°F0.1°C 28.1°F-2.2°C 85% Calm Calm 2.0 mph3.2 kmh 29.76 in1007.8 mb 0.00 in0.0 mm 0.00 in0.0 mm 0.00 in0.0 mm
12:40 AM 31.9°F-0.1°C 27.9°F-2.3°C 85% Calm Calm 2.0 mph3.2 kmh 29.76 in1007.8 mb 0.00 in0.0 mm 0.00 in0.0 mm 0.00 in0.0 mm
12:45 AM 31.7°F-0.2°C 27.7°F-2.4°C 85% Calm Calm 2.0 mph3.2 kmh 29.76 in1007.8 mb 0.00 in0.0 mm 0.00 in0.0 mm 0.00 in0.0 mm
12:50 AM 31.5°F-0.3°C 27.5°F-2.5°C 85% Calm Calm 2.0 mph3.2 kmh 29.76 in1007.8 mb 0.00 in0.0 mm 0.00 in0.0 mm 0.00 in0.0 mm
12:55 AM 31.4°F-0.3°C 27.4°F-2.6°C 85% Calm Calm 2.0 mph3.2 kmh 29.76 in1007.8 mb 0.00 in0.0 mm 0.00 in0.0 mm 0.00 in0.0 mm
01:00 AM 31.1°F-0.5°C 27.4°F-2.6°C 86% Calm Calm 2.0 mph3.2 kmh 29.76 in1007.8 mb 0.00 in0.0 mm 0.00 in0.0 mm 0.00 in0.0 mm
01:05 AM 31.0°F-0.6°C 27.3°F-2.6°C 86% Calm Calm 2.0 mph3.2 kmh 29.76 in1007.8 mb 0.00 in0.0 mm 0.00 in0.0 mm 0.00 in0.0 mm
01:10 AM 30.8°F-0.7°C 27.4°F-2.6°C 87% Calm Calm 2.0 mph3.2 kmh 29.77 in1008.1 mb 0.00 in0.0 mm 0.00 in0.0 mm 0.00 in0.0 mm
01:15 AM 30.6°F-0.8°C 27.2°F-2.7°C 87% Calm Calm 3.0 mph4.8 kmh 29.77 in1008.1 mb 0.00 in0.0 mm 0.00 in0.0 mm 0.00 in0.0 mm
01:20 AM 30.4°F-0.9°C 27.0°F-2.8°C 87% Calm Calm 3.0 mph4.8 kmh 29.76 in1007.8 mb 0.00 in0.0 mm 0.00 in0.0 mm 0.00 in0.0 mm
01:25 AM 30.2°F-1.0°C 26.8°F-2.9°C 87% Calm Calm 2.0 mph3.2 kmh 29.77 in1008.1 mb 0.00 in0.0 mm 0.00 in0.0 mm 0.00 in0.0 mm
01:30 AM 30.1°F-1.1°C 26.7°F-2.9°C 87% Calm Calm 2.0 mph3.2 kmh 29.77 in1008.1 mb 0.00 in0.0 mm 0.00 in0.0 mm 0.00 in0.0 mm
01:35 AM 29.8°F-1.2°C 26.4°F-3.1°C 87% Calm Calm 2.0 mph3.2 kmh 29.76 in1007.8 mb 0.00 in0.0 mm 0.00 in0.0 mm 0.00 in0.0 mm
01:40 AM 29.7°F-1.3°C 26.6°F-3.0°C 88% Calm Calm 2.0 mph3.2 kmh 29.76 in1007.8 mb 0.00 in0.0 mm 0.00 in0.0 mm 0.00 in0.0 mm
01:45 AM 29.6°F-1.3°C 26.5°F-3.1°C 88% Calm Calm 2.0 mph3.2 kmh 29.76 in1007.8 mb 0.00 in0.0 mm 0.00 in0.0 mm 0.00 in0.0 mm
01:50 AM 29.4°F-1.4°C 26.3°F-3.2°C 88% Calm Calm 2.0 mph3.2 kmh 29.76 in1007.8 mb 0.00 in0.0 mm 0.00 in0.0 mm 0.00 in0.0 mm
01:55 AM 29.3°F-1.5°C 26.2°F-3.2°C 88% Calm Calm 1.0 mph1.6 kmh 29.77 in1008.1 mb 0.00 in0.0 mm 0.00 in0.0 mm 0.00 in0.0 mm
02:00 AM 29.2°F-1.6°C 26.1°F-3.3°C 88% Calm Calm -- 29.77 in1008.1 mb 0.00 in0.0 mm 0.00 in0.0 mm 0.00 in0.0 mm
02:05 AM 29.0°F-1.7°C 25.9°F-3.4°C 88% Calm Calm 2.0 mph3.2 kmh 29.77 in1008.1 mb 0.00 in0.0 mm 0.00 in0.0 mm 0.00 in0.0 mm
02:10 AM 28.8°F-1.8°C 26.0°F-3.3°C 89% Calm Calm 2.0 mph3.2 kmh 29.76 in1007.8 mb 0.00 in0.0 mm 0.00 in0.0 mm 0.00 in0.0 mm
02:15 AM 28.8°F-1.8°C 26.0°F-3.3°C 89% Calm Calm 1.0 mph1.6 kmh 29.76 in1007.8 mb 0.00 in0.0 mm 0.00 in0.0 mm 0.00 in0.0 mm
02:20 AM 28.7°F-1.8°C 25.9°F-3.4°C 89% Calm Calm 2.0 mph3.2 kmh 29.76 in1007.8 mb 0.00 in0.0 mm 0.00 in0.0 mm 0.00 in0.0 mm
02:25 AM 28.7°F-1.8°C 25.9°F-3.4°C 89% Calm Calm 2.0 mph3.2 kmh 29.76 in1007.8 mb 0.00 in0.0 mm 0.00 in0.0 mm 0.00 in0.0 mm
02:30 AM 28.6°F-1.9°C 25.8°F-3.4°C 89% Calm Calm 1.0 mph1.6 kmh 29.76 in1007.8 mb 0.00 in0.0 mm 0.00 in0.0 mm 0.00 in0.0 mm
02:35 AM 28.5°F-1.9°C 25.7°F-3.5°C 89% Calm Calm 1.0 mph1.6 kmh 29.76 in1007.8 mb 0.00 in0.0 mm 0.00 in0.0 mm 0.00 in0.0 mm
02:40 AM 28.5°F-1.9°C 25.7°F-3.5°C 89% Calm Calm 1.0 mph1.6 kmh 29.76 in1007.8 mb 0.00 in0.0 mm 0.00 in0.0 mm 0.00 in0.0 mm
02:45 AM 28.4°F-2.0°C 25.6°F-3.6°C 89% Calm Calm 1.0 mph1.6 kmh 29.76 in1007.8 mb 0.00 in0.0 mm 0.00 in0.0 mm 0.00 in0.0 mm
02:50 AM 28.3°F-2.1°C 25.7°F-3.5°C 90% Calm Calm -- 29.76 in1007.8 mb 0.00 in0.0 mm 0.00 in0.0 mm 0.00 in0.0 mm
02:55 AM 28.2°F-2.1°C 25.6°F-3.6°C 90% Calm Calm -- 29.76 in1007.8 mb 0.00 in0.0 mm 0.00 in0.0 mm 0.00 in0.0 mm
03:00 AM 28.0°F-2.2°C 25.2°F-3.8°C 89% Calm Calm -- 29.76 in1007.8 mb 0.00 in0.0 mm 0.00 in0.0 mm 0.00 in0.0 mm
03:05 AM 27.9°F-2.3°C 25.3°F-3.7°C 90% Calm Calm -- 29.76 in1007.8 mb 0.00 in0.0 mm 0.00 in0.0 mm 0.00 in0.0 mm
03:10 AM 27.9°F-2.3°C 25.3°F-3.7°C 90% Calm Calm -- 29.76 in1007.8 mb 0.00 in0.0 mm 0.00 in0.0 mm 0.00 in0.0 mm
03:15 AM 27.8°F-2.3°C 25.2°F-3.8°C 90% Calm Calm -- 29.76 in1007.8 mb 0.00 in0.0 mm 0.00 in0.0 mm 0.00 in0.0 mm
03:20 AM 27.8°F-2.3°C 25.2°F-3.8°C 90% Calm Calm -- 29.76 in1007.8 mb 0.00 in0.0 mm 0.00 in0.0 mm 0.00 in0.0 mm
03:25 AM 27.8°F-2.3°C 25.2°F-3.8°C 90% Calm Calm -- 29.76 in1007.8 mb 0.00 in0.0 mm 0.00 in0.0 mm 0.00 in0.0 mm
03:30 AM 27.6°F-2.4°C 25.1°F-3.8°C 90% Calm Calm 1.0 mph1.6 kmh 29.76 in1007.8 mb 0.00 in0.0 mm 0.00 in0.0 mm 0.00 in0.0 mm
03:35 AM 27.6°F-2.4°C 25.1°F-3.8°C 90% Calm Calm 1.0 mph1.6 kmh 29.76 in1007.8 mb 0.00 in0.0 mm 0.00 in0.0 mm 0.00 in0.0 mm
03:40 AM 27.5°F-2.5°C 25.0°F-3.9°C 90% Calm Calm -- 29.76 in1007.8 mb 0.00 in0.0 mm 0.00 in0.0 mm 0.00 in0.0 mm
03:45 AM 27.5°F-2.5°C 25.0°F-3.9°C 90% Calm Calm -- 29.76 in1007.8 mb 0.00 in0.0 mm 0.00 in0.0 mm 0.00 in0.0 mm
03:50 AM 27.4°F-2.6°C 24.9°F-3.9°C 90% Calm Calm -- 29.76 in1007.8 mb 0.00 in0.0 mm 0.00 in0.0 mm 0.00 in0.0 mm
03:55 AM 27.3°F-2.6°C 24.8°F-4.0°C 90% Calm Calm 1.0 mph1.6 kmh 29.76 in1007.8 mb 0.00 in0.0 mm 0.00 in0.0 mm 0.00 in0.0 mm
04:00 AM 27.2°F-2.7°C 24.7°F-4.1°C 90% Calm Calm 1.0 mph1.6 kmh 29.76 in1007.8 mb 0.00 in0.0 mm 0.00 in0.0 mm 0.00 in0.0 mm
04:05 AM 27.1°F-2.7°C 24.6°F-4.1°C 90% Calm Calm 1.0 mph1.6 kmh 29.76 in1007.8 mb 0.00 in0.0 mm 0.00 in0.0 mm 0.00 in0.0 mm
04:10 AM 26.9°F-2.8°C 24.4°F-4.2°C 90% Calm Calm 1.0 mph1.6 kmh 29.76 in1007.8 mb 0.00 in0.0 mm 0.00 in0.0 mm 0.00 in0.0 mm
04:15 AM 26.9°F-2.8°C 24.4°F-4.2°C 90% Calm Calm 1.0 mph1.6 kmh 29.76 in1007.8 mb 0.00 in0.0 mm 0.00 in0.0 mm 0.00 in0.0 mm
04:20 AM 27.0°F-2.8°C 24.7°F-4.1°C 91% Calm Calm -- 29.76 in1007.8 mb 0.00 in0.0 mm 0.00 in0.0 mm 0.00 in0.0 mm
04:25 AM 27.0°F-2.8°C 24.7°F-4.1°C 91% Calm Calm 1.0 mph1.6 kmh 29.75 in1007.5 mb 0.00 in0.0 mm 0.00 in0.0 mm 0.00 in0.0 mm
04:30 AM 27.0°F-2.8°C 24.7°F-4.1°C 91% Calm Calm 1.0 mph1.6 kmh 29.75 in1007.5 mb 0.00 in0.0 mm 0.00 in0.0 mm 0.00 in0.0 mm
04:35 AM 26.9°F-2.8°C 24.4°F-4.2°C 90% Calm Calm 1.0 mph1.6 kmh 29.75 in1007.5 mb 0.00 in0.0 mm 0.00 in0.0 mm 0.00 in0.0 mm
04:40 AM 26.7°F-2.9°C 24.2°F-4.3°C 90% Calm Calm 2.0 mph3.2 kmh 29.75 in1007.5 mb 0.00 in0.0 mm 0.00 in0.0 mm 0.00 in0.0 mm
04:45 AM 26.6°F-3.0°C 24.3°F-4.3°C 91% Calm Calm 2.0 mph3.2 kmh 29.75 in1007.5 mb 0.00 in0.0 mm 0.00 in0.0 mm 0.00 in0.0 mm
04:50 AM 26.5°F-3.1°C 24.2°F-4.3°C 91% Calm Calm 2.0 mph3.2 kmh 29.75 in1007.5 mb 0.00 in0.0 mm 0.00 in0.0 mm 0.00 in0.0 mm
04:55 AM 26.5°F-3.1°C 24.2°F-4.3°C 91% Calm Calm 2.0 mph3.2 kmh 29.75 in1007.5 mb 0.00 in0.0 mm 0.00 in0.0 mm 0.00 in0.0 mm
05:00 AM 26.4°F-3.1°C 24.1°F-4.4°C 91% Calm Calm 2.0 mph3.2 kmh 29.75 in1007.5 mb 0.00 in0.0 mm 0.00 in0.0 mm 0.00 in0.0 mm
05:05 AM 26.4°F-3.1°C 24.1°F-4.4°C 91% Calm Calm 2.0 mph3.2 kmh 29.75 in1007.5 mb 0.00 in0.0 mm 0.00 in0.0 mm 0.00 in0.0 mm
05:10 AM 26.3°F-3.2°C 24.0°F-4.4°C 91% Calm Calm 2.0 mph3.2 kmh 29.75 in1007.5 mb 0.00 in0.0 mm 0.00 in0.0 mm 0.00 in0.0 mm
05:15 AM 26.4°F-3.1°C 24.1°F-4.4°C 91% Calm Calm 2.0 mph3.2 kmh 29.74 in1007.1 mb 0.00 in0.0 mm 0.00 in0.0 mm 0.00 in0.0 mm
05:20 AM 26.4°F-3.1°C 24.4°F-4.2°C 92% Calm Calm 2.0 mph3.2 kmh 29.75 in1007.5 mb 0.00 in0.0 mm 0.00 in0.0 mm 0.00 in0.0 mm
05:25 AM 26.4°F-3.1°C 24.4°F-4.2°C 92% Calm Calm 2.0 mph3.2 kmh 29.74 in1007.1 mb 0.00 in0.0 mm 0.00 in0.0 mm 0.00 in0.0 mm
05:30 AM 26.5°F-3.1°C 24.5°F-4.2°C 92% 1.0 mph ENE1.6 kmh ENE 3.0 mph4.8 kmh 29.74 in1007.1 mb 0.00 in0.0 mm 0.00 in0.0 mm 0.00 in0.0 mm
05:35 AM 26.7°F-2.9°C 24.7°F-4.1°C 92% 1.0 mph NE1.6 kmh NE 3.0 mph4.8 kmh 29.74 in1007.1 mb 0.00 in0.0 mm 0.00 in0.0 mm 0.00 in0.0 mm
05:40 AM 26.9°F-2.8°C 24.9°F-3.9°C 92% Calm Calm 3.0 mph4.8 kmh 29.74 in1007.1 mb 0.00 in0.0 mm 0.00 in0.0 mm 0.00 in0.0 mm
05:45 AM 26.9°F-2.8°C 24.9°F-3.9°C 92% Calm Calm 2.0 mph3.2 kmh 29.74 in1007.1 mb 0.00 in0.0 mm 0.00 in0.0 mm 0.00 in0.0 mm
05:50 AM 27.1°F-2.7°C 25.1°F-3.8°C 92% Calm Calm 1.0 mph1.6 kmh 29.74 in1007.1 mb 0.00 in0.0 mm 0.00 in0.0 mm 0.00 in0.0 mm
05:55 AM 27.2°F-2.7°C 25.2°F-3.8°C 92% Calm Calm 2.0 mph3.2 kmh 29.74 in1007.1 mb 0.00 in0.0 mm 0.00 in0.0 mm 0.00 in0.0 mm
06:00 AM 27.3°F-2.6°C 25.3°F-3.7°C 92% Calm Calm 2.0 mph3.2 kmh 29.74 in1007.1 mb 0.00 in0.0 mm 0.00 in0.0 mm 0.00 in0.0 mm
06:05 AM 27.5°F-2.5°C 25.5°F-3.6°C 92% Calm Calm 2.0 mph3.2 kmh 29.74 in1007.1 mb 0.00 in0.0 mm 0.00 in0.0 mm 0.00 in0.0 mm
06:10 AM 27.6°F-2.4°C 25.6°F-3.6°C 92% Calm Calm 2.0 mph3.2 kmh 29.74 in1007.1 mb 0.00 in0.0 mm 0.00 in0.0 mm 0.00 in0.0 mm
06:15 AM 27.8°F-2.3°C 26.0°F-3.3°C 93% Calm Calm 2.0 mph3.2 kmh 29.74 in1007.1 mb 0.00 in0.0 mm 0.00 in0.0 mm 0.00 in0.0 mm
06:20 AM 28.0°F-2.2°C 26.2°F-3.2°C 93% Calm Calm 2.0 mph3.2 kmh 29.74 in1007.1 mb 0.00 in0.0 mm 0.00 in0.0 mm 0.00 in0.0 mm
06:25 AM 28.2°F-2.1°C 26.4°F-3.1°C 93% Calm Calm 2.0 mph3.2 kmh 29.73 in1006.8 mb 0.00 in0.0 mm 0.00 in0.0 mm 0.00 in0.0 mm
06:30 AM 28.6°F-1.9°C 26.8°F-2.9°C 93% Calm Calm 2.0 mph3.2 kmh 29.73 in1006.8 mb 0.00 in0.0 mm 0.00 in0.0 mm 0.00 in0.0 mm
06:35 AM 29.0°F-1.7°C 27.2°F-2.7°C 93% Calm Calm 2.0 mph3.2 kmh 29.73 in1006.8 mb 0.00 in0.0 mm 0.00 in0.0 mm 0.00 in0.0 mm
06:40 AM 29.5°F-1.4°C 28.0°F-2.2°C 94% Calm Calm 2.0 mph3.2 kmh 29.73 in1006.8 mb 0.00 in0.0 mm 0.00 in0.0 mm 0.00 in0.0 mm
06:45 AM 30.0°F-1.1°C 28.5°F-1.9°C 94% Calm Calm 2.0 mph3.2 kmh 29.73 in1006.8 mb 0.00 in0.0 mm 0.00 in0.0 mm 0.00 in0.0 mm
06:50 AM 30.4°F-0.9°C 28.9°F-1.7°C 94% Calm Calm 2.0 mph3.2 kmh 29.73 in1006.8 mb 0.00 in0.0 mm 0.00 in0.0 mm 0.00 in0.0 mm
06:55 AM 30.9°F-0.6°C 29.4°F-1.4°C 94% Calm Calm 2.0 mph3.2 kmh 29.72 in1006.4 mb 0.00 in0.0 mm 0.00 in0.0 mm 0.00 in0.0 mm
07:00 AM 31.5°F-0.3°C 30.2°F-1.0°C 95% Calm Calm 3.0 mph4.8 kmh 29.72 in1006.4 mb 0.00 in0.0 mm 0.00 in0.0 mm 0.00 in0.0 mm
07:05 AM 32.1°F0.1°C 30.8°F-0.7°C 95% 1.0 mph NE1.6 kmh NE 3.0 mph4.8 kmh 29.72 in1006.4 mb 0.00 in0.0 mm 0.00 in0.0 mm 0.00 in0.0 mm
07:10 AM 32.5°F0.3°C 31.2°F-0.4°C 95% 1.0 mph NE1.6 kmh NE 3.0 mph4.8 kmh 29.72 in1006.4 mb 0.00 in0.0 mm 0.00 in0.0 mm 0.00 in0.0 mm
07:15 AM 32.9°F0.5°C 31.4°F-0.3°C 94% 1.0 mph NE1.6 kmh NE 3.0 mph4.8 kmh 29.72 in1006.4 mb 0.00 in0.0 mm 0.00 in0.0 mm 0.00 in0.0 mm
07:20 AM 33.4°F0.8°C 32.1°F0.1°C 95% 1.0 mph NE1.6 kmh NE 4.0 mph6.4 kmh 29.72 in1006.4 mb 0.00 in0.0 mm 0.00 in0.0 mm 0.00 in0.0 mm
07:25 AM 33.9°F1.1°C 32.6°F0.3°C 95% 1.0 mph NE1.6 kmh NE 4.0 mph6.4 kmh 29.72 in1006.4 mb 0.00 in0.0 mm 0.00 in0.0 mm 0.00 in0.0 mm
07:30 AM 34.4°F1.3°C 32.9°F0.5°C 94% 1.0 mph NE1.6 kmh NE 4.0 mph6.4 kmh 29.72 in1006.4 mb 0.00 in0.0 mm 0.00 in0.0 mm 0.00 in0.0 mm
07:35 AM 35.0°F1.7°C 33.4°F0.8°C 94% 1.0 mph NE1.6 kmh NE 4.0 mph6.4 kmh 29.71 in1006.1 mb 0.00 in0.0 mm 0.00 in0.0 mm 0.00 in0.0 mm
07:40 AM 35.7°F2.1°C 34.1°F1.2°C 94% 1.0 mph NE1.6 kmh NE 5.0 mph8.0 kmh 29.71 in1006.1 mb 0.00 in0.0 mm 0.00 in0.0 mm 0.00 in0.0 mm
07:45 AM 36.5°F2.5°C 34.1°F1.2°C 91% 2.0 mph ENE3.2 kmh ENE 6.0 mph9.7 kmh 29.71 in1006.1 mb 0.00 in0.0 mm 0.00 in0.0 mm 0.00 in0.0 mm
07:50 AM 37.4°F3.0°C 33.9°F1.1°C 87% 2.0 mph ENE3.2 kmh ENE 6.0 mph9.7 kmh 29.70 in1005.8 mb 0.00 in0.0 mm 0.00 in0.0 mm 0.00 in0.0 mm
07:55 AM 38.2°F3.4°C 33.8°F1.0°C 84% 1.0 mph ENE1.6 kmh ENE 6.0 mph9.7 kmh 29.70 in1005.8 mb 0.00 in0.0 mm 0.00 in0.0 mm 0.00 in0.0 mm
08:00 AM 39.0°F3.9°C 33.0°F0.6°C 79% 1.0 mph NE1.6 kmh NE 4.0 mph6.4 kmh 29.70 in1005.8 mb 0.00 in0.0 mm 0.00 in0.0 mm 0.00 in0.0 mm
08:05 AM 39.9°F4.4°C 33.3°F0.7°C 77% 1.0 mph NE1.6 kmh NE 9.0 mph14.5 kmh 29.70 in1005.8 mb 0.00 in0.0 mm 0.00 in0.0 mm 0.00 in0.0 mm
08:10 AM 41.0°F5.0°C 32.3°F0.2°C 71% 2.0 mph NE3.2 kmh NE 9.0 mph14.5 kmh 29.70 in1005.8 mb 0.00 in0.0 mm 0.00 in0.0 mm 0.00 in0.0 mm
08:15 AM 42.4°F5.8°C 31.1°F-0.5°C 64% 3.0 mph ENE4.8 kmh ENE 7.0 mph11.3 kmh 29.70 in1005.8 mb 0.00 in0.0 mm 0.00 in0.0 mm 0.00 in0.0 mm
08:20 AM 43.7°F6.5°C 31.5°F-0.3°C 62% 3.0 mph NE4.8 kmh NE 6.0 mph9.7 kmh 29.69 in1005.4 mb 0.00 in0.0 mm 0.00 in0.0 mm 0.00 in0.0 mm
08:25 AM 44.7°F7.1°C 30.0°F-1.1°C 56% 3.0 mph NE4.8 kmh NE 7.0 mph11.3 kmh 29.69 in1005.4 mb 0.00 in0.0 mm 0.00 in0.0 mm 0.00 in0.0 mm
08:30 AM 45.6°F7.6°C 30.3°F-0.9°C 55% 3.0 mph ENE4.8 kmh ENE 7.0 mph11.3 kmh 29.69 in1005.4 mb 0.00 in0.0 mm 0.00 in0.0 mm 0.00 in0.0 mm
08:35 AM 46.2°F7.9°C 29.5°F-1.4°C 52% 2.0 mph NE3.2 kmh NE 7.0 mph11.3 kmh 29.68 in1005.1 mb 0.00 in0.0 mm 0.00 in0.0 mm 0.00 in0.0 mm
08:40 AM 46.8°F8.2°C 30.6°F-0.8°C 53% 2.0 mph NE3.2 kmh NE 7.0 mph11.3 kmh 29.68 in1005.1 mb 0.00 in0.0 mm 0.00 in0.0 mm 0.00 in0.0 mm
08:45 AM 47.2°F8.4°C 28.0°F-2.2°C 47% 3.0 mph NE4.8 kmh NE 7.0 mph11.3 kmh 29.68 in1005.1 mb 0.00 in0.0 mm 0.00 in0.0 mm 0.00 in0.0 mm
08:50 AM 47.6°F8.7°C 28.9°F-1.7°C 48% 3.0 mph NE4.8 kmh NE 6.0 mph9.7 kmh 29.67 in1004.7 mb 0.00 in0.0 mm 0.00 in0.0 mm 0.00 in0.0 mm
08:55 AM 47.9°F8.8°C 29.1°F-1.6°C 48% 3.0 mph NE4.8 kmh NE 7.0 mph11.3 kmh 29.67 in1004.7 mb 0.00 in0.0 mm 0.00 in0.0 mm 0.00 in0.0 mm
09:00 AM 48.4°F9.1°C 29.1°F-1.6°C 47% 3.0 mph ENE4.8 kmh ENE 7.0 mph11.3 kmh 29.67 in1004.7 mb 0.00 in0.0 mm 0.00 in0.0 mm 0.00 in0.0 mm
09:05 AM 48.8°F9.3°C 28.4°F-2.0°C 45% 4.0 mph E6.4 kmh E 10.0 mph16.1 kmh 29.66 in1004.4 mb 0.00 in0.0 mm 0.00 in0.0 mm 0.00 in0.0 mm
09:10 AM 49.1°F9.5°C 29.2°F-1.6°C 46% 3.0 mph ENE4.8 kmh ENE 10.0 mph16.1 kmh 29.66 in1004.4 mb 0.00 in0.0 mm 0.00 in0.0 mm 0.00 in0.0 mm
09:15 AM 49.4°F9.7°C 29.5°F-1.4°C 46% 2.0 mph NE3.2 kmh NE 10.0 mph16.1 kmh 29.66 in1004.4 mb 0.00 in0.0 mm 0.00 in0.0 mm 0.00 in0.0 mm
09:20 AM 49.8°F9.9°C 29.3°F-1.5°C 45% 3.0 mph NE4.8 kmh NE 10.0 mph16.1 kmh 29.65 in1004.1 mb 0.00 in0.0 mm 0.00 in0.0 mm 0.00 in0.0 mm
09:25 AM 50.3°F10.2°C 30.8°F-0.7°C 47% 4.0 mph ENE6.4 kmh ENE 12.0 mph19.3 kmh 29.65 in1004.1 mb 0.00 in0.0 mm 0.00 in0.0 mm 0.00 in0.0 mm
09:30 AM 50.7°F10.4°C 29.6°F-1.3°C 44% 3.0 mph ENE4.8 kmh ENE 12.0 mph19.3 kmh 29.64 in1003.7 mb 0.00 in0.0 mm 0.00 in0.0 mm 0.00 in0.0 mm
09:35 AM 51.2°F10.7°C 28.3°F-2.1°C 41% 3.0 mph E4.8 kmh E 10.0 mph16.1 kmh 29.64 in1003.7 mb 0.00 in0.0 mm 0.00 in0.0 mm 0.00 in0.0 mm
09:40 AM 51.5°F10.8°C 28.6°F-1.9°C 41% 4.0 mph E6.4 kmh E 10.0 mph16.1 kmh 29.64 in1003.7 mb 0.00 in0.0 mm 0.00 in0.0 mm 0.00 in0.0 mm
09:45 AM 51.9°F11.1°C 27.7°F-2.4°C 39% 4.0 mph E6.4 kmh E 9.0 mph14.5 kmh 29.64 in1003.7 mb 0.00 in0.0 mm 0.00 in0.0 mm 0.00 in0.0 mm
09:50 AM 52.3°F11.3°C 28.1°F-2.2°C 39% 4.0 mph E6.4 kmh E 9.0 mph14.5 kmh 29.64 in1003.7 mb 0.00 in0.0 mm 0.00 in0.0 mm 0.00 in0.0 mm
09:55 AM 52.6°F11.4°C 28.9°F-1.7°C 40% 2.0 mph E3.2 kmh E 9.0 mph14.5 kmh 29.63 in1003.4 mb 0.00 in0.0 mm 0.00 in0.0 mm 0.00 in0.0 mm
10:00 AM 52.8°F11.6°C 28.5°F-1.9°C 39% 4.0 mph ENE6.4 kmh ENE 13.0 mph20.9 kmh 29.63 in1003.4 mb 0.00 in0.0 mm 0.00 in0.0 mm 0.00 in0.0 mm
10:05 AM 52.9°F11.6°C 29.2°F-1.6°C 40% 5.0 mph ENE8.0 kmh ENE 13.0 mph20.9 kmh 29.63 in1003.4 mb 0.00 in0.0 mm 0.00 in0.0 mm 0.00 in0.0 mm
10:10 AM 53.2°F11.8°C 28.2°F-2.1°C 38% 4.0 mph NE6.4 kmh NE 10.0 mph16.1 kmh 29.63 in1003.4 mb 0.00 in0.0 mm 0.00 in0.0 mm 0.00 in0.0 mm
10:15 AM 53.6°F12.0°C 29.2°F-1.6°C 39% 4.0 mph ENE6.4 kmh ENE 10.0 mph16.1 kmh 29.62 in1003.0 mb 0.00 in0.0 mm 0.00 in0.0 mm 0.00 in0.0 mm
10:20 AM 54.0°F12.2°C 29.6°F-1.3°C 39% 3.0 mph NE4.8 kmh NE 9.0 mph14.5 kmh 29.62 in1003.0 mb 0.00 in0.0 mm 0.00 in0.0 mm 0.00 in0.0 mm
10:25 AM 54.3°F12.4°C 27.9°F-2.3°C 36% 3.0 mph ENE4.8 kmh ENE 7.0 mph11.3 kmh 29.62 in1003.0 mb 0.00 in0.0 mm 0.00 in0.0 mm 0.00 in0.0 mm
10:30 AM 54.5°F12.5°C 28.1°F-2.2°C 36% 2.0 mph E3.2 kmh E 6.0 mph9.7 kmh 29.61 in1002.7 mb 0.00 in0.0 mm 0.00 in0.0 mm 0.00 in0.0 mm
10:35 AM 54.9°F12.7°C 27.7°F-2.4°C 35% 2.0 mph ENE3.2 kmh ENE 6.0 mph9.7 kmh 29.61 in1002.7 mb 0.00 in0.0 mm 0.00 in0.0 mm 0.00 in0.0 mm
10:40 AM 55.7°F13.2°C 26.3°F-3.2°C 32% 4.0 mph SE6.4 kmh SE 16.0 mph25.7 kmh 29.61 in1002.7 mb 0.00 in0.0 mm 0.00 in0.0 mm 0.00 in0.0 mm
10:45 AM 56.0°F13.3°C 25.8°F-3.4°C 31% 4.0 mph SE6.4 kmh SE 16.0 mph25.7 kmh 29.60 in1002.4 mb 0.00 in0.0 mm 0.00 in0.0 mm 0.00 in0.0 mm
10:50 AM 56.3°F13.5°C 26.0°F-3.3°C 31% 3.0 mph ESE4.8 kmh ESE 13.0 mph20.9 kmh 29.60 in1002.4 mb 0.00 in0.0 mm 0.00 in0.0 mm 0.00 in0.0 mm
10:55 AM 56.5°F13.6°C 27.0°F-2.8°C 32% 3.0 mph ESE4.8 kmh ESE 13.0 mph20.9 kmh 29.60 in1002.4 mb 0.00 in0.0 mm 0.00 in0.0 mm 0.00 in0.0 mm
11:00 AM 56.5°F13.6°C 26.2°F-3.2°C 31% 4.0 mph E6.4 kmh E 12.0 mph19.3 kmh 29.59 in1002.0 mb 0.00 in0.0 mm 0.00 in0.0 mm 0.00 in0.0 mm
11:05 AM 56.4°F13.6°C 26.1°F-3.3°C 31% 4.0 mph E6.4 kmh E 12.0 mph19.3 kmh 29.59 in1002.0 mb 0.00 in0.0 mm 0.00 in0.0 mm 0.00 in0.0 mm
11:10 AM 56.2°F13.4°C 26.7°F-2.9°C 32% 5.0 mph E8.0 kmh E 12.0 mph19.3 kmh 29.59 in1002.0 mb 0.00 in0.0 mm 0.00 in0.0 mm 0.00 in0.0 mm
11:15 AM 56.2°F13.4°C 25.9°F-3.4°C 31% 4.0 mph E6.4 kmh E 10.0 mph16.1 kmh 29.59 in1002.0 mb 0.00 in0.0 mm 0.00 in0.0 mm 0.00 in0.0 mm
11:20 AM 56.2°F13.4°C 26.7°F-2.9°C 32% 3.0 mph E4.8 kmh E 9.0 mph14.5 kmh 29.59 in1002.0 mb 0.00 in0.0 mm 0.00 in0.0 mm 0.00 in0.0 mm
11:25 AM 56.5°F13.6°C 27.0°F-2.8°C 32% 3.0 mph E4.8 kmh E 10.0 mph16.1 kmh 29.58 in1001.7 mb 0.00 in0.0 mm 0.00 in0.0 mm 0.00 in0.0 mm
11:30 AM 56.8°F13.8°C 26.5°F-3.1°C 31% 3.0 mph E4.8 kmh E 10.0 mph16.1 kmh 29.58 in1001.7 mb 0.00 in0.0 mm 0.00 in0.0 mm 0.00 in0.0 mm
11:35 AM 57.0°F13.9°C 25.8°F-3.4°C 30% 4.0 mph E6.4 kmh E 13.0 mph20.9 kmh 29.58 in1001.7 mb 0.00 in0.0 mm 0.00 in0.0 mm 0.00 in0.0 mm
11:40 AM 57.1°F13.9°C 25.9°F-3.4°C 30% 6.0 mph E9.7 kmh E 18.0 mph29.0 kmh 29.58 in1001.7 mb 0.00 in0.0 mm 0.00 in0.0 mm 0.00 in0.0 mm
11:45 AM 57.5°F14.2°C 24.6°F-4.1°C 28% 5.0 mph E8.0 kmh E 18.0 mph29.0 kmh 29.57 in1001.4 mb 0.00 in0.0 mm 0.00 in0.0 mm 0.00 in0.0 mm
11:50 AM 58.1°F14.5°C 27.6°F-2.4°C 31% 3.0 mph E4.8 kmh E 9.0 mph14.5 kmh 29.57 in1001.4 mb 0.00 in0.0 mm 0.00 in0.0 mm 0.00 in0.0 mm
11:55 AM 59.0°F15.0°C 26.8°F-2.9°C 29% 3.0 mph E4.8 kmh E 14.0 mph22.5 kmh 29.57 in1001.4 mb 0.00 in0.0 mm 0.00 in0.0 mm 0.00 in0.0 mm
12:00 PM 59.4°F15.2°C 26.2°F-3.2°C 28% 4.0 mph E6.4 kmh E 14.0 mph22.5 kmh 29.56 in1001.0 mb 0.00 in0.0 mm 0.00 in0.0 mm 0.00 in0.0 mm
12:05 PM 59.2°F15.1°C 26.1°F-3.3°C 28% 4.0 mph E6.4 kmh E 14.0 mph22.5 kmh 29.56 in1001.0 mb 0.00 in0.0 mm 0.00 in0.0 mm 0.00 in0.0 mm
12:10 PM 59.0°F15.0°C 25.9°F-3.4°C 28% 3.0 mph E4.8 kmh E 8.0 mph12.9 kmh 29.56 in1001.0 mb 0.00 in0.0 mm 0.00 in0.0 mm 0.00 in0.0 mm
12:15 PM 59.0°F15.0°C 25.9°F-3.4°C 28% 5.0 mph E8.0 kmh E 16.0 mph25.7 kmh 29.56 in1001.0 mb 0.00 in0.0 mm 0.00 in0.0 mm 0.00 in0.0 mm
12:20 PM 59.2°F15.1°C 25.2°F-3.8°C 27% 5.0 mph E8.0 kmh E 16.0 mph25.7 kmh 29.55 in1000.7 mb 0.00 in0.0 mm 0.00 in0.0 mm 0.00 in0.0 mm
12:25 PM 59.8°F15.4°C 26.6°F-3.0°C 28% 3.0 mph ENE4.8 kmh ENE 10.0 mph16.1 kmh 29.55 in1000.7 mb 0.00 in0.0 mm 0.00 in0.0 mm 0.00 in0.0 mm
12:30 PM 60.2°F15.7°C 26.9°F-2.8°C 28% 2.0 mph ENE3.2 kmh ENE 9.0 mph14.5 kmh 29.54 in1000.3 mb 0.00 in0.0 mm 0.00 in0.0 mm 0.00 in0.0 mm
12:35 PM 60.4°F15.8°C 24.4°F-4.2°C 25% 4.0 mph ESE6.4 kmh ESE 19.0 mph30.6 kmh 29.54 in1000.3 mb 0.00 in0.0 mm 0.00 in0.0 mm 0.00 in0.0 mm
12:40 PM 60.4°F15.8°C 25.3°F-3.7°C 26% 5.0 mph ESE8.0 kmh ESE 19.0 mph30.6 kmh 29.54 in1000.3 mb 0.00 in0.0 mm 0.00 in0.0 mm 0.00 in0.0 mm
12:45 PM 60.6°F15.9°C 25.5°F-3.6°C 26% 4.0 mph ESE6.4 kmh ESE 15.0 mph24.1 kmh 29.53 in1000.0 mb 0.00 in0.0 mm 0.00 in0.0 mm 0.00 in0.0 mm
12:50 PM 60.3°F15.7°C 24.3°F-4.3°C 25% 7.0 mph E11.3 kmh E 15.0 mph24.1 kmh 29.53 in1000.0 mb 0.00 in0.0 mm 0.00 in0.0 mm 0.00 in0.0 mm
12:55 PM 60.0°F15.6°C 25.0°F-3.9°C 26% 7.0 mph E11.3 kmh E 15.0 mph24.1 kmh 29.52 in999.7 mb 0.00 in0.0 mm 0.00 in0.0 mm 0.00 in0.0 mm
01:00 PM 60.3°F15.7°C 24.3°F-4.3°C 25% 5.0 mph E8.0 kmh E 15.0 mph24.1 kmh 29.52 in999.7 mb 0.00 in0.0 mm 0.00 in0.0 mm 0.00 in0.0 mm
01:05 PM 60.5°F15.8°C 24.5°F-4.2°C 25% 5.0 mph E8.0 kmh E 15.0 mph24.1 kmh 29.52 in999.7 mb 0.00 in0.0 mm 0.00 in0.0 mm 0.00 in0.0 mm
01:10 PM 60.6°F15.9°C 23.6°F-4.7°C 24% 4.0 mph E6.4 kmh E 9.0 mph14.5 kmh 29.51 in999.3 mb 0.00 in0.0 mm 0.00 in0.0 mm 0.00 in0.0 mm
01:15 PM 60.4°F15.8°C 23.4°F-4.8°C 24% 4.0 mph ESE6.4 kmh ESE 13.0 mph20.9 kmh 29.51 in999.3 mb 0.00 in0.0 mm 0.00 in0.0 mm 0.00 in0.0 mm
01:20 PM 60.4°F15.8°C 23.4°F-4.8°C 24% 4.0 mph ESE6.4 kmh ESE 14.0 mph22.5 kmh 29.51 in999.3 mb 0.00 in0.0 mm 0.00 in0.0 mm 0.00 in0.0 mm
01:25 PM 60.2°F15.7°C 23.2°F-4.9°C 24% 4.0 mph E6.4 kmh E 14.0 mph22.5 kmh 29.51 in999.3 mb 0.00 in0.0 mm 0.00 in0.0 mm 0.00 in0.0 mm
01:30 PM 60.0°F15.6°C 24.0°F-4.4°C 25% 5.0 mph E8.0 kmh E 15.0 mph24.1 kmh 29.50 in999.0 mb 0.00 in0.0 mm 0.00 in0.0 mm 0.00 in0.0 mm
01:35 PM 60.0°F15.6°C 24.0°F-4.4°C 25% 6.0 mph E9.7 kmh E 15.0 mph24.1 kmh 29.50 in999.0 mb 0.00 in0.0 mm 0.00 in0.0 mm 0.00 in0.0 mm
01:40 PM 60.0°F15.6°C 23.1°F-4.9°C 24% 6.0 mph E9.7 kmh E 14.0 mph22.5 kmh 29.50 in999.0 mb 0.00 in0.0 mm 0.00 in0.0 mm 0.00 in0.0 mm
01:45 PM 60.4°F15.8°C 24.4°F-4.2°C 25% 3.0 mph E4.8 kmh E 11.0 mph17.7 kmh 29.49 in998.6 mb 0.00 in0.0 mm 0.00 in0.0 mm 0.00 in0.0 mm
01:50 PM 60.9°F16.1°C 22.8°F-5.1°C 23% 3.0 mph E4.8 kmh E 13.0 mph20.9 kmh 29.49 in998.6 mb 0.00 in0.0 mm 0.00 in0.0 mm 0.00 in0.0 mm
01:55 PM 61.0°F16.1°C 24.9°F-3.9°C 25% 6.0 mph E9.7 kmh E 16.0 mph25.7 kmh 29.48 in998.3 mb 0.00 in0.0 mm 0.00 in0.0 mm 0.00 in0.0 mm
02:00 PM 60.8°F16.0°C 25.7°F-3.5°C 26% 8.0 mph E12.9 kmh E 17.0 mph27.4 kmh 29.48 in998.3 mb 0.00 in0.0 mm 0.00 in0.0 mm 0.00 in0.0 mm
02:05 PM 60.9°F16.1°C 25.7°F-3.5°C 26% 7.0 mph E11.3 kmh E 19.0 mph30.6 kmh 29.48 in998.3 mb 0.00 in0.0 mm 0.00 in0.0 mm 0.00 in0.0 mm
02:10 PM 61.1°F16.2°C 23.0°F-5.0°C 23% 5.0 mph ESE8.0 kmh ESE 19.0 mph30.6 kmh 29.48 in998.3 mb 0.00 in0.0 mm 0.00 in0.0 mm 0.00 in0.0 mm
02:15 PM 61.0°F16.1°C 23.9°F-4.5°C 24% 3.0 mph SE4.8 kmh SE 18.0 mph29.0 kmh 29.47 in998.0 mb 0.00 in0.0 mm 0.00 in0.0 mm 0.00 in0.0 mm
02:20 PM 61.0°F16.1°C 23.9°F-4.5°C 24% 3.0 mph SE4.8 kmh SE 11.0 mph17.7 kmh 29.46 in997.6 mb 0.00 in0.0 mm 0.00 in0.0 mm 0.00 in0.0 mm
02:25 PM 61.4°F16.3°C 26.2°F-3.2°C 26% 3.0 mph SE4.8 kmh SE 10.0 mph16.1 kmh 29.46 in997.6 mb 0.00 in0.0 mm 0.00 in0.0 mm 0.00 in0.0 mm
02:30 PM 61.8°F16.6°C 24.6°F-4.1°C 24% 5.0 mph E8.0 kmh E 15.0 mph24.1 kmh 29.46 in997.6 mb 0.00 in0.0 mm 0.00 in0.0 mm 0.00 in0.0 mm
02:35 PM 61.1°F16.2°C 25.0°F-3.9°C 25% 7.0 mph E11.3 kmh E 16.0 mph25.7 kmh 29.46 in997.6 mb 0.00 in0.0 mm 0.00 in0.0 mm 0.00 in0.0 mm
02:40 PM 60.1°F15.6°C 25.1°F-3.8°C 26% 7.0 mph E11.3 kmh E 16.0 mph25.7 kmh 29.46 in997.6 mb 0.00 in0.0 mm 0.00 in0.0 mm 0.00 in0.0 mm
02:45 PM 59.3°F15.2°C 25.3°F-3.7°C 27% 6.0 mph E9.7 kmh E 13.0 mph20.9 kmh 29.45 in997.3 mb 0.00 in0.0 mm 0.00 in0.0 mm 0.00 in0.0 mm
02:50 PM 59.0°F15.0°C 25.0°F-3.9°C 27% 5.0 mph E8.0 kmh E 11.0 mph17.7 kmh 29.45 in997.3 mb 0.00 in0.0 mm 0.00 in0.0 mm 0.00 in0.0 mm
02:55 PM 58.8°F14.9°C 24.9°F-3.9°C 27% 5.0 mph E8.0 kmh E 11.0 mph17.7 kmh 29.45 in997.3 mb 0.00 in0.0 mm 0.00 in0.0 mm 0.00 in0.0 mm
03:00 PM 58.6°F14.8°C 25.6°F-3.6°C 28% 6.0 mph E9.7 kmh E 12.0 mph19.3 kmh 29.45 in997.3 mb 0.00 in0.0 mm 0.00 in0.0 mm 0.00 in0.0 mm
03:05 PM 58.6°F14.8°C 26.4°F-3.1°C 29% 5.0 mph E8.0 kmh E 12.0 mph19.3 kmh 29.45 in997.3 mb 0.00 in0.0 mm 0.00 in0.0 mm 0.00 in0.0 mm
03:10 PM 58.7°F14.8°C 25.6°F-3.6°C 28% 3.0 mph E4.8 kmh E 12.0 mph19.3 kmh 29.44 in997.0 mb 0.00 in0.0 mm 0.00 in0.0 mm 0.00 in0.0 mm
03:15 PM 59.0°F15.0°C 25.9°F-3.4°C 28% 2.0 mph E3.2 kmh E 9.0 mph14.5 kmh 29.44 in997.0 mb 0.00 in0.0 mm 0.00 in0.0 mm 0.00 in0.0 mm
03:20 PM 59.2°F15.1°C 26.1°F-3.3°C 28% 3.0 mph E4.8 kmh E 16.0 mph25.7 kmh 29.44 in997.0 mb 0.00 in0.0 mm 0.00 in0.0 mm 0.00 in0.0 mm
03:25 PM 59.3°F15.2°C 26.2°F-3.2°C 28% 4.0 mph ESE6.4 kmh ESE 16.0 mph25.7 kmh 29.43 in996.6 mb 0.00 in0.0 mm 0.00 in0.0 mm 0.00 in0.0 mm
03:30 PM 59.1°F15.1°C 25.1°F-3.8°C 27% 4.0 mph E6.4 kmh E 11.0 mph17.7 kmh 29.43 in996.6 mb 0.00 in0.0 mm 0.00 in0.0 mm 0.00 in0.0 mm
03:35 PM 59.0°F15.0°C 26.8°F-2.9°C 29% 3.0 mph E4.8 kmh E 11.0 mph17.7 kmh 29.43 in996.6 mb 0.00 in0.0 mm 0.00 in0.0 mm 0.00 in0.0 mm
03:40 PM 59.0°F15.0°C 25.9°F-3.4°C 28% 2.0 mph E3.2 kmh E 9.0 mph14.5 kmh 29.43 in996.6 mb 0.00 in0.0 mm 0.00 in0.0 mm 0.00 in0.0 mm
03:45 PM 59.0°F15.0°C 26.8°F-2.9°C 29% 2.0 mph E3.2 kmh E 7.0 mph11.3 kmh 29.43 in996.6 mb 0.00 in0.0 mm 0.00 in0.0 mm 0.00 in0.0 mm
03:50 PM 59.0°F15.0°C 25.9°F-3.4°C 28% 2.0 mph ESE3.2 kmh ESE 7.0 mph11.3 kmh 29.42 in996.3 mb 0.00 in0.0 mm 0.00 in0.0 mm 0.00 in0.0 mm
03:55 PM 59.0°F15.0°C 27.6°F-2.4°C 30% 2.0 mph SE3.2 kmh SE 9.0 mph14.5 kmh 29.42 in996.3 mb 0.00 in0.0 mm 0.00 in0.0 mm 0.00 in0.0 mm
04:00 PM 59.4°F15.2°C 26.2°F-3.2°C 28% 3.0 mph ESE4.8 kmh ESE 10.0 mph16.1 kmh 29.42 in996.3 mb 0.00 in0.0 mm 0.00 in0.0 mm 0.00 in0.0 mm
04:05 PM 59.0°F15.0°C 26.8°F-2.9°C 29% 4.0 mph E6.4 kmh E 18.0 mph29.0 kmh 29.43 in996.6 mb 0.00 in0.0 mm 0.00 in0.0 mm 0.00 in0.0 mm
04:10 PM 58.6°F14.8°C 27.2°F-2.7°C 30% 6.0 mph E9.7 kmh E 18.0 mph29.0 kmh 29.42 in996.3 mb 0.00 in0.0 mm 0.00 in0.0 mm 0.00 in0.0 mm
04:15 PM 57.8°F14.3°C 27.3°F-2.6°C 31% 9.0 mph ENE14.5 kmh ENE 19.0 mph30.6 kmh 29.42 in996.3 mb 0.00 in0.0 mm 0.00 in0.0 mm 0.00 in0.0 mm
04:20 PM 57.5°F14.2°C 29.3°F-1.5°C 34% 8.0 mph ENE12.9 kmh ENE 19.0 mph30.6 kmh 29.42 in996.3 mb 0.00 in0.0 mm 0.00 in0.0 mm 0.00 in0.0 mm
04:25 PM 57.4°F14.1°C 29.2°F-1.6°C 34% 5.0 mph NE8.0 kmh NE 13.0 mph20.9 kmh 29.42 in996.3 mb 0.00 in0.0 mm 0.00 in0.0 mm 0.00 in0.0 mm
04:30 PM 57.5°F14.2°C 28.6°F-1.9°C 33% 5.0 mph NE8.0 kmh NE 13.0 mph20.9 kmh 29.42 in996.3 mb 0.00 in0.0 mm 0.00 in0.0 mm 0.00 in0.0 mm
04:35 PM 57.5°F14.2°C 28.6°F-1.9°C 33% 5.0 mph ENE8.0 kmh ENE 12.0 mph19.3 kmh 29.42 in996.3 mb 0.00 in0.0 mm 0.00 in0.0 mm 0.00 in0.0 mm
04:40 PM 57.6°F14.2°C 27.9°F-2.3°C 32% 4.0 mph NE6.4 kmh NE 7.0 mph11.3 kmh 29.41 in995.9 mb 0.00 in0.0 mm 0.00 in0.0 mm 0.00 in0.0 mm
04:45 PM 57.6°F14.2°C 27.9°F-2.3°C 32% 3.0 mph ENE4.8 kmh ENE 14.0 mph22.5 kmh 29.41 in995.9 mb 0.00 in0.0 mm 0.00 in0.0 mm 0.00 in0.0 mm
04:50 PM 57.6°F14.2°C 27.9°F-2.3°C 32% 4.0 mph E6.4 kmh E 14.0 mph22.5 kmh 29.41 in995.9 mb 0.00 in0.0 mm 0.00 in0.0 mm 0.00 in0.0 mm
04:55 PM 57.6°F14.2°C 27.9°F-2.3°C 32% 5.0 mph E8.0 kmh E 14.0 mph22.5 kmh 29.42 in996.3 mb 0.00 in0.0 mm 0.00 in0.0 mm 0.00 in0.0 mm
05:00 PM 57.6°F14.2°C 27.9°F-2.3°C 32% 5.0 mph E8.0 kmh E 14.0 mph22.5 kmh 29.41 in995.9 mb 0.00 in0.0 mm 0.00 in0.0 mm 0.00 in0.0 mm
05:05 PM 57.6°F14.2°C 27.9°F-2.3°C 32% 4.0 mph ESE6.4 kmh ESE 13.0 mph20.9 kmh 29.41 in995.9 mb 0.00 in0.0 mm 0.00 in0.0 mm 0.00 in0.0 mm
05:10 PM 57.6°F14.2°C 27.9°F-2.3°C 32% 4.0 mph ESE6.4 kmh ESE 13.0 mph20.9 kmh 29.41 in995.9 mb 0.00 in0.0 mm 0.00 in0.0 mm 0.00 in0.0 mm
05:15 PM 57.5°F14.2°C 27.8°F-2.3°C 32% 4.0 mph ESE6.4 kmh ESE 13.0 mph20.9 kmh 29.41 in995.9 mb 0.00 in0.0 mm 0.00 in0.0 mm 0.00 in0.0 mm
05:20 PM 57.5°F14.2°C 28.6°F-1.9°C 33% 4.0 mph ESE6.4 kmh ESE 12.0 mph19.3 kmh 29.41 in995.9 mb 0.00 in0.0 mm 0.00 in0.0 mm 0.00 in0.0 mm
05:25 PM 57.4°F14.1°C 28.5°F-1.9°C 33% 5.0 mph SE8.0 kmh SE 14.0 mph22.5 kmh 29.41 in995.9 mb 0.00 in0.0 mm 0.00 in0.0 mm 0.00 in0.0 mm
05:30 PM 57.3°F14.1°C 28.4°F-2.0°C 33% 6.0 mph SE9.7 kmh SE 16.0 mph25.7 kmh 29.41 in995.9 mb 0.00 in0.0 mm 0.00 in0.0 mm 0.00 in0.0 mm
05:35 PM 57.2°F14.0°C 29.1°F-1.6°C 34% 4.0 mph SE6.4 kmh SE 16.0 mph25.7 kmh 29.41 in995.9 mb 0.00 in0.0 mm 0.00 in0.0 mm 0.00 in0.0 mm
05:40 PM 57.1°F13.9°C 29.0°F-1.7°C 34% 4.0 mph SE6.4 kmh SE 16.0 mph25.7 kmh 29.41 in995.9 mb 0.00 in0.0 mm 0.00 in0.0 mm 0.00 in0.0 mm
05:45 PM 57.1°F13.9°C 29.7°F-1.3°C 35% 5.0 mph SE8.0 kmh SE 16.0 mph25.7 kmh 29.41 in995.9 mb 0.00 in0.0 mm 0.00 in0.0 mm 0.00 in0.0 mm
05:50 PM 56.9°F13.8°C 28.8°F-1.8°C 34% 5.0 mph ESE8.0 kmh ESE 16.0 mph25.7 kmh 29.41 in995.9 mb 0.00 in0.0 mm 0.00 in0.0 mm 0.00 in0.0 mm
05:55 PM 56.8°F13.8°C 28.7°F-1.8°C 34% 4.0 mph ESE6.4 kmh ESE 17.0 mph27.4 kmh 29.41 in995.9 mb 0.00 in0.0 mm 0.00 in0.0 mm 0.00 in0.0 mm
06:00 PM 56.7°F13.7°C 28.6°F-1.9°C 34% 4.0 mph ESE6.4 kmh ESE 17.0 mph27.4 kmh 29.41 in995.9 mb 0.00 in0.0 mm 0.00 in0.0 mm 0.00 in0.0 mm
06:05 PM 56.5°F13.6°C 29.1°F-1.6°C 35% 7.0 mph E11.3 kmh E 16.0 mph25.7 kmh 29.41 in995.9 mb 0.00 in0.0 mm 0.00 in0.0 mm 0.00 in0.0 mm
06:10 PM 56.4°F13.6°C 29.1°F-1.6°C 35% 6.0 mph E9.7 kmh E 14.0 mph22.5 kmh 29.41 in995.9 mb 0.00 in0.0 mm 0.00 in0.0 mm 0.00 in0.0 mm
06:15 PM 56.2°F13.4°C 28.9°F-1.7°C 35% 3.0 mph E4.8 kmh E 13.0 mph20.9 kmh 29.41 in995.9 mb 0.00 in0.0 mm 0.00 in0.0 mm 0.00 in0.0 mm
06:20 PM 56.1°F13.4°C 29.5°F-1.4°C 36% 2.0 mph E3.2 kmh E 7.0 mph11.3 kmh 29.41 in995.9 mb 0.00 in0.0 mm 0.00 in0.0 mm 0.00 in0.0 mm
06:25 PM 56.0°F13.3°C 29.4°F-1.4°C 36% 2.0 mph ESE3.2 kmh ESE 7.0 mph11.3 kmh 29.41 in995.9 mb 0.00 in0.0 mm 0.00 in0.0 mm 0.00 in0.0 mm
06:30 PM 55.9°F13.3°C 30.6°F-0.8°C 38% 2.0 mph SE3.2 kmh SE 19.0 mph30.6 kmh 29.41 in995.9 mb 0.00 in0.0 mm 0.00 in0.0 mm 0.00 in0.0 mm
06:35 PM 55.6°F13.1°C 31.0°F-0.6°C 39% 5.0 mph SE8.0 kmh SE 19.0 mph30.6 kmh 29.41 in995.9 mb 0.00 in0.0 mm 0.00 in0.0 mm 0.00 in0.0 mm
06:40 PM 55.0°F12.8°C 31.1°F-0.5°C 40% 7.0 mph SE11.3 kmh SE 24.0 mph38.6 kmh 29.41 in995.9 mb 0.00 in0.0 mm 0.00 in0.0 mm 0.00 in0.0 mm
06:45 PM 54.5°F12.5°C 31.3°F-0.4°C 41% 7.0 mph SE11.3 kmh SE 24.0 mph38.6 kmh 29.41 in995.9 mb 0.00 in0.0 mm 0.00 in0.0 mm 0.00 in0.0 mm
06:50 PM 54.1°F12.3°C 31.5°F-0.3°C 42% 7.0 mph SE11.3 kmh SE 20.0 mph32.2 kmh 29.41 in995.9 mb 0.00 in0.0 mm 0.00 in0.0 mm 0.00 in0.0 mm
06:55 PM 53.9°F12.2°C 31.9°F-0.1°C 43% 6.0 mph SE9.7 kmh SE 20.0 mph32.2 kmh 29.42 in996.3 mb 0.00 in0.0 mm 0.00 in0.0 mm 0.00 in0.0 mm
07:00 PM 53.7°F12.1°C 31.7°F-0.2°C 43% 4.0 mph ESE6.4 kmh ESE 12.0 mph19.3 kmh 29.42 in996.3 mb 0.00 in0.0 mm 0.00 in0.0 mm 0.00 in0.0 mm
07:05 PM 53.5°F11.9°C 31.5°F-0.3°C 43% 2.0 mph E3.2 kmh E 7.0 mph11.3 kmh 29.41 in995.9 mb 0.00 in0.0 mm 0.00 in0.0 mm 0.00 in0.0 mm
07:10 PM 53.5°F11.9°C 31.5°F-0.3°C 43% 2.0 mph ESE3.2 kmh ESE 7.0 mph11.3 kmh 29.41 in995.9 mb 0.00 in0.0 mm 0.00 in0.0 mm 0.00 in0.0 mm
07:15 PM 53.4°F11.9°C 32.0°F0.0°C 44% 1.0 mph ESE1.6 kmh ESE 7.0 mph11.3 kmh 29.41 in995.9 mb 0.00 in0.0 mm 0.00 in0.0 mm 0.00 in0.0 mm
07:20 PM 53.2°F11.8°C 31.8°F-0.1°C 44% 1.0 mph ESE1.6 kmh ESE 7.0 mph11.3 kmh 29.42 in996.3 mb 0.00 in0.0 mm 0.00 in0.0 mm 0.00 in0.0 mm
07:25 PM 53.0°F11.7°C 31.6°F-0.2°C 44% 1.0 mph ESE1.6 kmh ESE 7.0 mph11.3 kmh 29.41 in995.9 mb 0.00 in0.0 mm 0.00 in0.0 mm 0.00 in0.0 mm
07:30 PM 52.9°F11.6°C 31.0°F-0.6°C 43% 2.0 mph SE3.2 kmh SE 15.0 mph24.1 kmh 29.41 in995.9 mb 0.00 in0.0 mm 0.00 in0.0 mm 0.00 in0.0 mm
07:35 PM 52.7°F11.5°C 30.8°F-0.7°C 43% 3.0 mph SE4.8 kmh SE 15.0 mph24.1 kmh 29.41 in995.9 mb 0.00 in0.0 mm 0.00 in0.0 mm 0.00 in0.0 mm
07:40 PM 52.4°F11.3°C 31.1°F-0.5°C 44% 4.0 mph SE6.4 kmh SE 13.0 mph20.9 kmh 29.41 in995.9 mb 0.00 in0.0 mm 0.00 in0.0 mm 0.00 in0.0 mm
07:45 PM 52.2°F11.2°C 30.9°F-0.6°C 44% 3.0 mph SE4.8 kmh SE 13.0 mph20.9 kmh 29.41 in995.9 mb 0.00 in0.0 mm 0.00 in0.0 mm 0.00 in0.0 mm
07:50 PM 52.1°F11.2°C 31.4°F-0.3°C 45% 4.0 mph SE6.4 kmh SE 13.0 mph20.9 kmh 29.42 in996.3 mb 0.00 in0.0 mm 0.00 in0.0 mm 0.00 in0.0 mm
07:55 PM 51.9°F11.1°C 31.7°F-0.2°C 46% 5.0 mph SE8.0 kmh SE 13.0 mph20.9 kmh 29.41 in995.9 mb 0.00 in0.0 mm 0.00 in0.0 mm 0.00 in0.0 mm
08:00 PM 51.7°F10.9°C 32.1°F0.1°C 47% 3.0 mph SE4.8 kmh SE 10.0 mph16.1 kmh 29.42 in996.3 mb 0.00 in0.0 mm 0.00 in0.0 mm 0.00 in0.0 mm
08:05 PM 51.5°F10.8°C 31.9°F-0.1°C 47% 2.0 mph SE3.2 kmh SE 9.0 mph14.5 kmh 29.41 in995.9 mb 0.00 in0.0 mm 0.00 in0.0 mm 0.00 in0.0 mm
08:10 PM 51.3°F10.7°C 32.3°F0.2°C 48% 3.0 mph SE4.8 kmh SE 12.0 mph19.3 kmh 29.41 in995.9 mb 0.00 in0.0 mm 0.00 in0.0 mm 0.00 in0.0 mm
08:15 PM 51.2°F10.7°C 32.7°F0.4°C 49% 4.0 mph SE6.4 kmh SE 16.0 mph25.7 kmh 29.41 in995.9 mb 0.00 in0.0 mm 0.00 in0.0 mm 0.00 in0.0 mm
08:20 PM 51.0°F10.6°C 33.0°F0.6°C 50% 4.0 mph SE6.4 kmh SE 16.0 mph25.7 kmh 29.41 in995.9 mb 0.00 in0.0 mm 0.00 in0.0 mm 0.00 in0.0 mm
08:25 PM 50.9°F10.5°C 32.9°F0.5°C 50% 2.0 mph SE3.2 kmh SE 11.0 mph17.7 kmh 29.41 in995.9 mb 0.00 in0.0 mm 0.00 in0.0 mm 0.00 in0.0 mm
08:30 PM 50.7°F10.4°C 32.7°F0.4°C 50% 3.0 mph SE4.8 kmh SE 10.0 mph16.1 kmh 29.42 in996.3 mb 0.00 in0.0 mm 0.00 in0.0 mm 0.00 in0.0 mm
08:35 PM 50.7°F10.4°C 33.2°F0.7°C 51% 3.0 mph SE4.8 kmh SE 13.0 mph20.9 kmh 29.41 in995.9 mb 0.00 in0.0 mm 0.00 in0.0 mm 0.00 in0.0 mm
08:40 PM 50.5°F10.3°C 33.0°F0.6°C 51% 3.0 mph SE4.8 kmh SE 13.0 mph20.9 kmh 29.42 in996.3 mb 0.00 in0.0 mm 0.00 in0.0 mm 0.00 in0.0 mm
08:45 PM 50.3°F10.2°C 32.8°F0.4°C 51% 4.0 mph SE6.4 kmh SE 17.0 mph27.4 kmh 29.42 in996.3 mb 0.00 in0.0 mm 0.00 in0.0 mm 0.00 in0.0 mm
08:50 PM 50.2°F10.1°C 32.8°F0.4°C 51% 5.0 mph SE8.0 kmh SE 17.0 mph27.4 kmh 29.42 in996.3 mb 0.00 in0.0 mm 0.00 in0.0 mm 0.00 in0.0 mm
08:55 PM 50.1°F10.1°C 33.1°F0.6°C 52% 5.0 mph SE8.0 kmh SE 15.0 mph24.1 kmh 29.42 in996.3 mb 0.00 in0.0 mm 0.00 in0.0 mm 0.00 in0.0 mm
09:00 PM 49.9°F9.9°C 33.0°F0.6°C 52% 3.0 mph SE4.8 kmh SE 13.0 mph20.9 kmh 29.42 in996.3 mb 0.00 in0.0 mm 0.00 in0.0 mm 0.00 in0.0 mm
09:05 PM 49.7°F9.8°C 33.2°F0.7°C 53% 3.0 mph SE4.8 kmh SE 16.0 mph25.7 kmh 29.42 in996.3 mb 0.00 in0.0 mm 0.00 in0.0 mm 0.00 in0.0 mm
09:10 PM 49.4°F9.7°C 33.4°F0.8°C 54% 3.0 mph SE4.8 kmh SE 16.0 mph25.7 kmh 29.42 in996.3 mb 0.00 in0.0 mm 0.00 in0.0 mm 0.00 in0.0 mm
09:15 PM 49.2°F9.6°C 33.7°F0.9°C 55% 2.0 mph SE3.2 kmh SE 8.0 mph12.9 kmh 29.41 in995.9 mb 0.00 in0.0 mm 0.00 in0.0 mm 0.00 in0.0 mm
09:20 PM 48.9°F9.4°C 33.4°F0.8°C 55% 1.0 mph SE1.6 kmh SE 8.0 mph12.9 kmh 29.42 in996.3 mb 0.00 in0.0 mm 0.00 in0.0 mm 0.00 in0.0 mm
09:25 PM 48.7°F9.3°C 33.2°F0.7°C 55% 1.0 mph SE1.6 kmh SE 6.0 mph9.7 kmh 29.41 in995.9 mb 0.00 in0.0 mm 0.00 in0.0 mm 0.00 in0.0 mm
09:30 PM 48.4°F9.1°C 33.4°F0.8°C 56% 1.0 mph ESE1.6 kmh ESE 6.0 mph9.7 kmh 29.42 in996.3 mb 0.00 in0.0 mm 0.00 in0.0 mm 0.00 in0.0 mm
09:35 PM 48.1°F8.9°C 33.1°F0.6°C 56% Calm Calm 4.0 mph6.4 kmh 29.42 in996.3 mb 0.00 in0.0 mm 0.00 in0.0 mm 0.00 in0.0 mm
09:40 PM 47.8°F8.8°C 32.9°F0.5°C 56% 1.0 mph E1.6 kmh E 3.0 mph4.8 kmh 29.42 in996.3 mb 0.00 in0.0 mm 0.00 in0.0 mm 0.00 in0.0 mm
09:45 PM 47.5°F8.6°C 33.4°F0.8°C 58% 1.0 mph ENE1.6 kmh ENE 3.0 mph4.8 kmh 29.42 in996.3 mb 0.00 in0.0 mm 0.00 in0.0 mm 0.00 in0.0 mm
09:50 PM 47.1°F8.4°C 33.1°F0.6°C 58% 1.0 mph NE1.6 kmh NE 4.0 mph6.4 kmh 29.43 in996.6 mb 0.00 in0.0 mm 0.00 in0.0 mm 0.00 in0.0 mm
09:55 PM 46.7°F8.2°C 33.1°F0.6°C 59% 2.0 mph NE3.2 kmh NE 4.0 mph6.4 kmh 29.43 in996.6 mb 0.00 in0.0 mm 0.00 in0.0 mm 0.00 in0.0 mm
10:00 PM 46.2°F7.9°C 32.7°F0.4°C 59% 2.0 mph ENE3.2 kmh ENE 6.0 mph9.7 kmh 29.43 in996.6 mb 0.00 in0.0 mm 0.00 in0.0 mm 0.00 in0.0 mm
10:05 PM 46.0°F7.8°C 32.5°F0.3°C 59% 2.0 mph E3.2 kmh E 6.0 mph9.7 kmh 29.42 in996.3 mb 0.00 in0.0 mm 0.00 in0.0 mm 0.00 in0.0 mm
10:10 PM 45.9°F7.7°C 32.8°F0.4°C 60% 2.0 mph E3.2 kmh E 4.0 mph6.4 kmh 29.42 in996.3 mb 0.00 in0.0 mm 0.00 in0.0 mm 0.00 in0.0 mm
10:15 PM 45.6°F7.6°C 32.9°F0.5°C 61% 1.0 mph ENE1.6 kmh ENE 4.0 mph6.4 kmh 29.42 in996.3 mb 0.00 in0.0 mm 0.00 in0.0 mm 0.00 in0.0 mm
10:20 PM 45.1°F7.3°C 32.8°F0.4°C 62% 1.0 mph ENE1.6 kmh ENE 5.0 mph8.0 kmh 29.42 in996.3 mb 0.00 in0.0 mm 0.00 in0.0 mm 0.00 in0.0 mm
10:25 PM 44.8°F7.1°C 32.6°F0.3°C 62% 2.0 mph ENE3.2 kmh ENE 5.0 mph8.0 kmh 29.42 in996.3 mb 0.00 in0.0 mm 0.00 in0.0 mm 0.00 in0.0 mm
10:30 PM 44.6°F7.0°C 32.4°F0.2°C 62% 2.0 mph ENE3.2 kmh ENE 5.0 mph8.0 kmh 29.42 in996.3 mb 0.00 in0.0 mm 0.00 in0.0 mm 0.00 in0.0 mm
10:35 PM 44.5°F6.9°C 32.7°F0.4°C 63% 2.0 mph ENE3.2 kmh ENE 5.0 mph8.0 kmh 29.42 in996.3 mb 0.00 in0.0 mm 0.00 in0.0 mm 0.00 in0.0 mm
10:40 PM 44.2°F6.8°C 32.8°F0.4°C 64% 1.0 mph ENE1.6 kmh ENE 3.0 mph4.8 kmh 29.42 in996.3 mb 0.00 in0.0 mm 0.00 in0.0 mm 0.00 in0.0 mm
10:45 PM 43.8°F6.6°C 32.4°F0.2°C 64% 1.0 mph ENE1.6 kmh ENE 3.0 mph4.8 kmh 29.42 in996.3 mb 0.00 in0.0 mm 0.00 in0.0 mm 0.00 in0.0 mm
10:50 PM 43.6°F6.4°C 32.6°F0.3°C 65% 1.0 mph ENE1.6 kmh ENE 6.0 mph9.7 kmh 29.42 in996.3 mb 0.00 in0.0 mm 0.00 in0.0 mm 0.00 in0.0 mm
10:55 PM 43.3°F6.3°C 32.3°F0.2°C 65% 1.0 mph ENE1.6 kmh ENE 6.0 mph9.7 kmh 29.42 in996.3 mb 0.00 in0.0 mm 0.00 in0.0 mm 0.00 in0.0 mm
11:00 PM 43.0°F6.1°C 32.0°F0.0°C 65% 1.0 mph ENE1.6 kmh ENE 4.0 mph6.4 kmh 29.42 in996.3 mb 0.00 in0.0 mm 0.00 in0.0 mm 0.00 in0.0 mm
11:05 PM 42.7°F5.9°C 32.5°F0.3°C 67% 1.0 mph ENE1.6 kmh ENE 4.0 mph6.4 kmh 29.42 in996.3 mb 0.00 in0.0 mm 0.00 in0.0 mm 0.00 in0.0 mm
11:10 PM 42.4°F5.8°C 32.6°F0.3°C 68% 1.0 mph ENE1.6 kmh ENE 5.0 mph8.0 kmh 29.42 in996.3 mb 0.00 in0.0 mm 0.00 in0.0 mm 0.00 in0.0 mm
11:15 PM 42.2°F5.7°C 32.4°F0.2°C 68% 1.0 mph NE1.6 kmh NE 5.0 mph8.0 kmh 29.42 in996.3 mb 0.00 in0.0 mm 0.00 in0.0 mm 0.00 in0.0 mm
11:20 PM 42.0°F5.6°C 32.2°F0.1°C 68% 1.0 mph ENE1.6 kmh ENE 3.0 mph4.8 kmh 29.42 in996.3 mb 0.00 in0.0 mm 0.00 in0.0 mm 0.00 in0.0 mm
11:25 PM 41.8°F5.4°C 32.4°F0.2°C 69% 1.0 mph ENE1.6 kmh ENE 3.0 mph4.8 kmh 29.42 in996.3 mb 0.00 in0.0 mm 0.00 in0.0 mm 0.00 in0.0 mm
11:30 PM 41.7°F5.4°C 32.6°F0.3°C 70% Calm Calm 3.0 mph4.8 kmh 29.42 in996.3 mb 0.00 in0.0 mm 0.00 in0.0 mm 0.00 in0.0 mm
11:35 PM 41.5°F5.3°C 32.4°F0.2°C 70% Calm Calm 3.0 mph4.8 kmh 29.43 in996.6 mb 0.00 in0.0 mm 0.00 in0.0 mm 0.00 in0.0 mm
11:40 PM 41.3°F5.2°C 32.2°F0.1°C 70% Calm Calm 3.0 mph4.8 kmh 29.43 in996.6 mb 0.00 in0.0 mm 0.00 in0.0 mm 0.00 in0.0 mm
11:45 PM 41.1°F5.1°C 32.4°F0.2°C 71% Calm Calm 3.0 mph4.8 kmh 29.43 in996.6 mb 0.00 in0.0 mm 0.00 in0.0 mm 0.00 in0.0 mm
11:50 PM 41.0°F5.0°C 32.3°F0.2°C 71% Calm Calm 3.0 mph4.8 kmh 29.43 in996.6 mb 0.00 in0.0 mm 0.00 in0.0 mm 0.00 in0.0 mm
11:55 PM 40.7°F4.8°C 32.0°F0.0°C 71% 1.0 mph ENE1.6 kmh ENE 3.0 mph4.8 kmh 29.43 in996.6 mb 0.00 in0.0 mm 0.00 in0.0 mm 0.00 in0.0 mm